createdAt,value
2023-03-05T00:07:47.850Z,1120.00
2023-03-05T00:08:47.924Z,1173.00
2023-03-05T00:09:48.011Z,1192.00
2023-03-05T00:10:48.066Z,1199.00
2023-03-05T00:11:48.113Z,1134.00
2023-03-05T00:12:48.185Z,1056.00
2023-03-05T00:13:48.262Z,1083.00
2023-03-05T00:14:48.359Z,1104.00
2023-03-05T00:15:48.468Z,1107.00
2023-03-05T00:16:48.555Z,1116.00
2023-03-05T00:17:48.599Z,1136.00
2023-03-05T00:18:48.654Z,1149.00
2023-03-05T00:19:48.750Z,1178.00
2023-03-05T00:20:49.592Z,1162.00
2023-03-05T00:21:48.895Z,1112.00
2023-03-05T00:22:48.946Z,1110.00
2023-03-05T00:23:49.040Z,1113.00
2023-03-05T00:24:49.155Z,1112.00
2023-03-05T00:25:49.175Z,1104.00
2023-03-05T00:26:49.235Z,1114.00
2023-03-05T00:27:49.322Z,1131.00
2023-03-05T00:28:49.346Z,1139.00
2023-03-05T00:29:49.446Z,1178.00
2023-03-05T00:30:49.566Z,1159.00
2023-03-05T00:31:49.574Z,1154.00
2023-03-05T00:32:49.624Z,1162.00
2023-03-05T00:33:49.708Z,1154.00
2023-03-05T00:34:49.796Z,1134.00
2023-03-05T00:35:49.848Z,1148.00
2023-03-05T00:36:49.924Z,1150.00
2023-03-05T00:37:50.015Z,1170.00
2023-03-05T00:38:50.076Z,1158.00
2023-03-05T00:39:50.159Z,1131.00
2023-03-05T00:40:50.256Z,1151.00
2023-03-05T00:41:50.307Z,1158.00
2023-03-05T00:42:50.377Z,1156.00
2023-03-05T00:43:50.464Z,1159.00
2023-03-05T00:44:50.531Z,1155.00
2023-03-05T00:45:50.589Z,1175.00
2023-03-05T00:46:50.658Z,1155.00
2023-03-05T00:47:50.766Z,1158.00
2023-03-05T00:48:50.812Z,1190.00
2023-03-05T00:49:50.871Z,1179.00
2023-03-05T00:50:50.977Z,1178.00
2023-03-05T00:51:51.053Z,1145.00
2023-03-05T00:52:51.106Z,1174.00
2023-03-05T00:53:51.163Z,1187.00
2023-03-05T02:21:57.868Z,976.00
2023-03-05T02:22:57.957Z,973.00
2023-03-05T02:23:58.010Z,977.00
2023-03-05T02:24:58.089Z,947.00
2023-03-05T02:25:58.169Z,926.00
2023-03-05T02:26:58.253Z,914.00
2023-03-05T02:27:58.319Z,972.00
2023-03-05T02:28:58.428Z,1024.00
2023-03-05T02:29:58.504Z,1047.00
2023-03-05T02:30:58.572Z,972.00
2023-03-05T02:31:58.825Z,895.00
2023-03-05T02:32:58.759Z,883.00
2023-03-05T02:33:58.840Z,897.00
2023-03-05T02:34:58.924Z,941.00
2023-03-05T02:35:59.156Z,868.00
2023-03-05T02:36:59.142Z,841.00
2023-03-05T02:37:59.195Z,825.00
2023-03-05T02:38:59.265Z,897.00
2023-03-05T02:39:59.346Z,990.00
2023-03-05T02:40:59.415Z,991.00
2023-03-05T02:41:59.505Z,992.00
2023-03-05T02:42:59.565Z,959.00
2023-03-05T02:43:59.660Z,988.00
2023-03-05T02:44:59.776Z,1006.00
2023-03-05T02:45:59.850Z,1013.00
2023-03-05T02:46:59.900Z,1008.00
2023-03-05T02:47:59.931Z,986.00
2023-03-05T02:49:00.002Z,986.00
2023-03-05T02:50:00.120Z,971.00
2023-03-05T02:51:00.158Z,992.00
2023-03-05T02:52:00.210Z,973.00
2023-03-05T02:53:00.271Z,994.00
2023-03-05T02:54:00.346Z,999.00
2023-03-05T02:55:00.428Z,1006.00
2023-03-05T02:56:00.511Z,1003.00
2023-03-05T02:57:00.641Z,1006.00
2023-03-05T02:58:00.696Z,997.00
2023-03-05T02:59:00.745Z,999.00
2023-03-05T03:00:00.862Z,1025.00
2023-03-05T03:01:00.916Z,1005.00
2023-03-05T03:02:00.982Z,988.00
2023-03-05T03:03:01.140Z,986.00
2023-03-05T03:04:01.103Z,1025.00
2023-03-05T03:05:01.212Z,1043.00
2023-03-05T03:06:01.289Z,1006.00
2023-03-05T03:07:01.397Z,1009.00
2023-03-05T03:08:01.457Z,1034.00
2023-03-05T03:09:01.563Z,1044.00
2023-03-05T03:10:01.624Z,1042.00
2023-03-05T03:11:01.739Z,1027.00
2023-03-05T03:12:01.869Z,1002.00
2023-03-05T03:13:01.943Z,1000.00
2023-03-05T03:14:02.049Z,1020.00
2023-03-05T03:15:02.139Z,1015.00
2023-03-05T03:16:02.207Z,1008.00
2023-03-05T03:17:02.465Z,1022.00
2023-03-05T03:18:02.400Z,971.00
2023-03-05T03:19:02.473Z,998.00
2023-03-05T03:20:02.573Z,1012.00
2023-03-05T03:21:02.665Z,981.00
2023-03-05T03:22:02.738Z,949.00
2023-03-05T03:23:02.805Z,947.00
2023-03-05T03:24:02.843Z,961.00
2023-03-05T03:25:02.961Z,963.00
2023-03-05T03:26:03.032Z,973.00
2023-03-05T03:27:03.140Z,1008.00
2023-03-05T03:28:03.207Z,1017.00
2023-03-05T03:29:03.252Z,1017.00
2023-03-05T03:30:03.359Z,972.00
2023-03-05T03:31:03.477Z,959.00
2023-03-05T03:32:03.563Z,986.00
2023-03-05T03:33:03.575Z,1030.00
2023-03-05T03:34:03.593Z,1041.00
2023-03-05T03:35:03.697Z,1012.00
2023-03-05T03:36:03.720Z,1013.00
2023-03-05T03:37:03.823Z,1033.00
2023-03-05T03:38:03.876Z,1042.00
2023-03-05T03:39:03.965Z,1011.00
2023-03-05T03:40:04.010Z,982.00
2023-03-05T03:41:04.112Z,975.00
2023-03-05T03:42:04.252Z,1016.00
2023-03-05T03:43:04.263Z,1043.00
2023-03-05T03:44:04.359Z,1044.00
2023-03-05T03:45:04.457Z,1035.00
2023-03-05T03:46:04.534Z,996.00
2023-03-05T03:47:04.619Z,965.00
2023-03-05T03:48:04.655Z,944.00
2023-03-05T03:49:04.715Z,922.00
2023-03-05T03:50:04.777Z,974.00
2023-03-05T03:51:04.880Z,999.00
2023-03-05T03:52:04.895Z,1023.00
2023-03-05T03:53:04.960Z,1013.00
2023-03-05T03:54:05.017Z,976.00
2023-03-05T03:55:05.116Z,954.00
2023-03-05T03:56:05.166Z,986.00
2023-03-05T03:57:05.231Z,973.00
2023-03-05T03:58:05.274Z,936.00
2023-03-05T03:59:05.327Z,937.00
2023-03-05T04:00:05.374Z,976.00
2023-03-05T04:01:05.396Z,995.00
2023-03-05T04:02:05.510Z,935.00
2023-03-05T04:03:05.551Z,945.00
2023-03-05T04:04:05.718Z,953.00
2023-03-05T04:05:05.698Z,984.00
2023-03-05T04:06:05.779Z,995.00
2023-03-05T04:07:05.890Z,983.00
2023-03-05T04:08:05.985Z,964.00
2023-03-05T04:09:06.022Z,962.00
2023-03-05T04:10:06.093Z,967.00
2023-03-05T04:11:06.199Z,954.00
2023-03-05T04:12:06.332Z,964.00
2023-03-05T04:13:06.333Z,988.00
2023-03-05T04:14:06.465Z,967.00
2023-03-05T04:15:06.516Z,962.00
2023-03-05T04:16:06.584Z,987.00
2023-03-05T04:17:06.673Z,997.00
2023-03-05T04:18:06.781Z,1001.00
2023-03-05T04:19:06.831Z,1028.00
2023-03-05T04:20:06.945Z,1065.00
2023-03-05T04:21:07.031Z,1022.00
2023-03-05T04:22:07.115Z,996.00
2023-03-05T04:23:07.155Z,981.00
2023-03-05T04:24:07.261Z,993.00
2023-03-05T04:25:07.361Z,986.00
2023-03-05T04:26:07.423Z,976.00
2023-03-05T04:27:07.560Z,979.00
2023-03-05T04:28:07.621Z,998.00
2023-03-05T04:29:07.726Z,1023.00
2023-03-05T04:30:07.799Z,1022.00
2023-03-05T04:31:07.980Z,974.00
2023-03-05T04:32:08.022Z,974.00
2023-03-05T04:33:08.083Z,1035.00
2023-03-05T04:34:08.143Z,1058.00
2023-03-05T04:35:08.198Z,1061.00
2023-03-05T04:36:08.321Z,1060.00
2023-03-05T04:37:08.418Z,1047.00
2023-03-05T04:38:08.461Z,1045.00
2023-03-05T04:39:08.556Z,1061.00
2023-03-05T04:40:08.650Z,1072.00
2023-03-05T04:41:08.720Z,1065.00
2023-03-05T04:42:08.796Z,1078.00
2023-03-05T04:43:08.849Z,1072.00
2023-03-05T04:44:08.917Z,1098.00
2023-03-05T04:45:09.041Z,1106.00
2023-03-05T04:46:09.129Z,1072.00
2023-03-05T04:47:09.200Z,1041.00
2023-03-05T04:48:09.290Z,1009.00
2023-03-05T04:49:09.328Z,1012.00
2023-03-05T04:50:09.435Z,1059.00
2023-03-05T04:51:09.469Z,1078.00
2023-03-05T04:52:09.578Z,1090.00
2023-03-05T04:53:09.617Z,1053.00
2023-03-05T04:54:09.744Z,1045.00
2023-03-05T04:55:09.832Z,1050.00
2023-03-05T04:56:09.884Z,1029.00
2023-03-05T04:57:09.963Z,1025.00
2023-03-05T04:58:10.070Z,1034.00
2023-03-05T04:59:10.159Z,1035.00
2023-03-05T05:00:10.233Z,1066.00
2023-03-05T05:01:10.272Z,1032.00
2023-03-05T05:02:10.372Z,1064.00
2023-03-05T05:03:10.463Z,1072.00
2023-03-05T05:04:10.559Z,1071.00
2023-03-05T05:05:10.632Z,1072.00
2023-03-05T05:06:10.730Z,1070.00
2023-03-05T05:07:10.874Z,1076.00
2023-03-05T05:08:10.885Z,1082.00
2023-03-05T05:09:11.012Z,1072.00
2023-03-05T05:10:11.077Z,1084.00
2023-03-05T05:11:11.124Z,1083.00
2023-03-05T05:12:11.273Z,1095.00
2023-03-05T05:13:11.288Z,1057.00
2023-03-05T05:14:11.375Z,1060.00
2023-03-05T05:15:11.454Z,1072.00
2023-03-05T05:16:11.544Z,1086.00
2023-03-05T05:17:11.646Z,1106.00
2023-03-05T05:18:11.737Z,1089.00
2023-03-05T05:19:11.859Z,1088.00
2023-03-05T05:20:11.924Z,1101.00
2023-03-05T05:21:12.005Z,1080.00
2023-03-05T05:22:12.119Z,1072.00
2023-03-05T05:23:12.186Z,1087.00
2023-03-05T05:24:12.273Z,1112.00
2023-03-05T05:25:12.326Z,1077.00
2023-03-05T05:26:12.424Z,1072.00
2023-03-05T05:27:12.522Z,1073.00
2023-03-05T05:28:12.587Z,1079.00
2023-03-05T05:29:12.653Z,1049.00
2023-03-05T05:30:12.755Z,1025.00
2023-03-05T05:31:12.852Z,1040.00
2023-03-05T05:32:12.967Z,1066.00
2023-03-05T05:33:13.016Z,1052.00
2023-03-05T05:34:13.144Z,1077.00
2023-03-05T05:35:13.203Z,1062.00
2023-03-05T05:36:13.312Z,1042.00
2023-03-05T05:37:13.377Z,1035.00
2023-03-05T05:38:13.448Z,1011.00
2023-03-05T05:39:13.502Z,1000.00
2023-03-05T05:40:13.600Z,988.00
2023-03-05T05:41:13.711Z,1002.00
2023-03-05T05:42:13.770Z,988.00
2023-03-05T05:43:13.813Z,1000.00
2023-03-05T05:44:13.879Z,995.00
2023-03-05T05:45:13.976Z,956.00
2023-03-05T05:46:14.093Z,941.00
2023-03-05T05:47:14.140Z,920.00
2023-03-05T05:48:14.176Z,925.00
2023-03-05T05:49:14.219Z,912.00
2023-03-05T05:50:14.282Z,937.00
2023-03-05T05:51:14.350Z,900.00
2023-03-05T05:52:15.191Z,891.00
2023-03-05T05:53:14.509Z,892.00
2023-03-05T05:54:14.535Z,882.00
2023-03-05T05:55:14.631Z,898.00
2023-03-05T05:56:14.686Z,899.00
2023-03-05T05:57:14.747Z,882.00
2023-03-05T05:58:14.771Z,909.00
2023-03-05T05:59:14.864Z,927.00
2023-03-05T06:00:14.953Z,933.00
2023-03-05T06:01:14.999Z,940.00
2023-03-05T06:02:15.072Z,961.00
2023-03-05T06:03:15.212Z,969.00
2023-03-05T06:04:15.203Z,997.00
2023-03-05T06:05:15.277Z,1007.00
2023-03-05T06:06:15.369Z,999.00
2023-03-05T06:07:15.393Z,1009.00
2023-03-05T06:08:15.704Z,990.00
2023-03-05T06:09:15.517Z,999.00
2023-03-05T06:10:15.579Z,1021.00
2023-03-05T06:11:17.636Z,1037.00
2023-03-05T06:12:15.724Z,1048.00
2023-03-05T06:13:15.766Z,1050.00
2023-03-05T06:14:15.899Z,1065.00
2023-03-05T06:15:15.853Z,1075.00
2023-03-05T06:16:16.005Z,1080.00
2023-03-05T06:17:25.091Z,1059.00
2023-03-05T06:19:16.029Z,1067.00
2023-03-05T06:20:16.051Z,1075.00
2023-03-05T06:21:16.109Z,1092.00
2023-03-05T06:22:16.144Z,1111.00
2023-03-05T06:23:16.217Z,1110.00
2023-03-05T06:24:16.274Z,1118.00
2023-03-05T06:25:16.278Z,1126.00
2023-03-05T06:26:16.373Z,1135.00
2023-03-05T06:53:17.882Z,1180.00
2023-03-05T06:54:17.945Z,1174.00
2023-03-05T06:55:18.019Z,1166.00
2023-03-05T06:56:18.053Z,1132.00
2023-03-05T06:57:18.123Z,1127.00
2023-03-05T06:58:18.234Z,1142.00
2023-03-05T06:59:18.292Z,1151.00
2023-03-05T07:00:18.390Z,1141.00
2023-03-05T07:01:18.491Z,1134.00
2023-03-05T07:02:18.544Z,1104.00
2023-03-05T07:03:18.573Z,1115.00
2023-03-05T07:04:18.640Z,1092.00
2023-03-05T07:05:18.679Z,1098.00
2023-03-05T07:06:18.765Z,1106.00
2023-03-05T07:07:18.843Z,1104.00
2023-03-05T07:08:18.896Z,1106.00
2023-03-05T07:09:18.944Z,1098.00
2023-03-05T07:10:19.036Z,1098.00
2023-03-05T07:11:19.070Z,1083.00
2023-03-05T07:12:19.136Z,1044.00
2023-03-05T07:13:19.259Z,1063.00
2023-03-05T07:14:19.289Z,1056.00
2023-03-05T07:15:19.331Z,1064.00
2023-03-05T07:16:19.447Z,1059.00
2023-03-05T07:17:19.481Z,1050.00
2023-03-05T07:18:19.525Z,1068.00
2023-03-05T07:19:19.574Z,1067.00
2023-03-05T07:20:19.650Z,1057.00
2023-03-05T07:21:19.688Z,1040.00
2023-03-05T07:22:19.756Z,1025.00
2023-03-05T07:23:19.829Z,1039.00
2023-03-05T07:24:19.891Z,1060.00
2023-03-05T07:25:20.002Z,1056.00
2023-03-05T07:26:20.072Z,1049.00
2023-03-05T07:27:20.140Z,1068.00
2023-03-05T07:28:20.188Z,1061.00
2023-03-05T07:29:20.246Z,1082.00
2023-03-05T07:30:20.316Z,1095.00
2023-03-05T07:31:20.455Z,1068.00
2023-03-05T07:32:20.498Z,1053.00
2023-03-05T07:33:20.535Z,1064.00
2023-03-05T07:34:20.593Z,1061.00
2023-03-05T09:15:27.856Z,639.00
2023-03-05T09:16:28.007Z,642.00
2023-03-05T09:17:28.019Z,650.00
2023-03-05T09:18:28.103Z,676.00
2023-03-05T09:19:28.169Z,698.00
2023-03-05T09:20:28.281Z,704.00
2023-03-05T09:21:28.357Z,712.00
2023-03-05T09:22:28.400Z,674.00
2023-03-05T09:23:28.492Z,694.00
2023-03-05T09:24:28.582Z,707.00
2023-03-05T09:25:28.665Z,689.00
2023-03-05T09:26:28.775Z,675.00
2023-03-05T09:27:28.829Z,686.00
2023-03-05T09:28:28.912Z,663.00
2023-03-05T09:29:28.996Z,690.00
2023-03-05T09:30:29.065Z,708.00
2023-03-05T09:31:29.195Z,748.00
2023-03-05T09:32:29.254Z,733.00
2023-03-05T09:33:29.312Z,730.00
2023-03-05T09:34:29.407Z,760.00
2023-03-05T09:35:29.494Z,772.00
2023-03-05T09:36:29.560Z,752.00
2023-03-05T09:37:29.666Z,753.00
2023-03-05T09:38:29.690Z,760.00
2023-03-05T09:39:29.760Z,770.00
2023-03-05T09:40:29.831Z,798.00
2023-03-05T09:41:29.945Z,797.00
2023-03-05T09:42:29.999Z,807.00
2023-03-05T09:43:30.066Z,800.00
2023-03-05T09:44:30.187Z,794.00
2023-03-05T09:45:30.311Z,800.00
2023-03-05T09:46:30.341Z,803.00
2023-03-05T09:47:30.418Z,798.00
2023-03-05T09:48:30.497Z,817.00
2023-03-05T09:49:30.553Z,838.00
2023-03-05T09:50:30.619Z,837.00
2023-03-05T09:51:30.700Z,838.00
2023-03-05T09:52:30.742Z,853.00
2023-03-05T09:53:30.828Z,861.00
2023-03-05T09:54:30.920Z,869.00
2023-03-05T09:55:31.002Z,873.00
2023-03-05T09:56:31.057Z,883.00
2023-03-05T09:57:31.160Z,909.00
2023-03-05T09:58:31.283Z,893.00
2023-03-05T09:59:31.301Z,918.00
2023-03-05T10:00:31.406Z,951.00
2023-03-05T10:01:31.484Z,969.00
2023-03-05T10:02:31.565Z,980.00
2023-03-05T10:03:31.673Z,942.00
2023-03-05T10:04:31.747Z,920.00
2023-03-05T10:05:31.879Z,919.00
2023-03-05T10:06:31.928Z,919.00
2023-03-05T10:07:31.972Z,885.00
2023-03-05T10:08:32.066Z,879.00
2023-03-05T10:09:32.166Z,911.00
2023-03-05T10:10:32.253Z,935.00
2023-03-05T10:11:32.298Z,984.00
2023-03-05T10:12:32.416Z,1011.00
2023-03-05T10:13:32.495Z,923.00
2023-03-05T10:14:32.566Z,896.00
2023-03-05T10:15:32.595Z,825.00
2023-03-05T10:16:32.776Z,728.00
2023-03-05T10:17:32.783Z,709.00
2023-03-05T10:18:32.882Z,753.00
2023-03-05T10:19:32.950Z,787.00
2023-03-05T10:20:33.014Z,838.00
2023-03-05T10:21:33.104Z,835.00
2023-03-05T10:22:33.214Z,844.00
2023-03-05T10:23:33.248Z,865.00
2023-03-05T10:24:33.331Z,894.00
2023-03-05T10:25:33.427Z,800.00
2023-03-05T10:26:33.461Z,730.00
2023-03-05T10:27:33.650Z,662.00
2023-03-05T10:28:33.620Z,661.00
2023-03-05T10:29:33.742Z,696.00
2023-03-05T10:30:33.761Z,638.00
2023-03-05T10:31:33.903Z,629.00
2023-03-05T10:32:33.947Z,639.00
2023-03-05T10:33:34.026Z,624.00
2023-03-05T10:34:34.073Z,593.00
2023-03-05T10:35:34.193Z,597.00
2023-03-05T10:36:34.260Z,606.00
2023-03-05T10:37:34.291Z,574.00
2023-03-05T10:38:34.407Z,570.00
2023-03-05T10:39:34.493Z,570.00
2023-03-05T10:40:34.537Z,586.00
2023-03-05T10:41:34.639Z,592.00
2023-03-05T10:42:34.695Z,603.00
2023-03-05T10:43:34.781Z,611.00
2023-03-05T10:44:34.864Z,609.00
2023-03-05T10:45:34.983Z,606.00
2023-03-05T10:46:35.037Z,604.00
2023-03-05T10:47:35.102Z,613.00
2023-03-05T10:48:35.208Z,604.00
2023-03-05T10:49:35.254Z,580.00
2023-03-05T10:50:35.334Z,587.00
2023-03-05T10:51:35.417Z,597.00
2023-03-05T10:52:35.461Z,606.00
2023-03-05T10:53:35.555Z,603.00
2023-03-05T10:54:35.631Z,604.00
2023-03-05T10:55:35.705Z,611.00
2023-03-05T10:56:35.826Z,594.00
2023-03-05T10:57:35.868Z,589.00
2023-03-05T10:58:35.945Z,576.00
2023-03-05T10:59:36.026Z,555.00
2023-03-05T11:23:37.872Z,566.00
2023-03-05T11:24:37.955Z,568.00
2023-03-05T11:25:38.020Z,573.00
2023-03-05T11:26:38.123Z,587.00
2023-03-05T11:27:38.205Z,624.00
2023-03-05T11:28:38.319Z,646.00
2023-03-05T11:29:38.389Z,654.00
2023-03-05T11:30:38.476Z,662.00
2023-03-05T11:31:38.499Z,670.00
2023-03-05T11:32:38.667Z,705.00
2023-03-05T11:33:38.654Z,664.00
2023-03-05T11:34:38.762Z,571.00
2023-03-05T11:35:38.857Z,519.00
2023-03-05T11:36:38.924Z,505.00
2023-03-05T11:37:38.995Z,528.00
2023-03-05T11:38:39.062Z,535.00
2023-03-05T11:39:39.149Z,498.00
2023-03-05T11:40:39.250Z,507.00
2023-03-05T11:41:39.319Z,520.00
2023-03-05T11:42:39.387Z,500.00
2023-03-05T11:43:39.455Z,549.00
2023-03-05T11:44:39.533Z,597.00
2023-03-05T11:45:39.630Z,567.00
2023-03-05T11:46:39.729Z,572.00
2023-03-05T11:47:39.778Z,592.00
2023-03-05T11:48:39.876Z,598.00
2023-03-05T11:49:39.946Z,584.00
2023-03-05T11:50:40.002Z,522.00
2023-03-05T11:51:40.122Z,503.00
2023-03-05T11:52:40.190Z,529.00
2023-03-05T11:53:40.266Z,523.00
2023-03-05T11:54:40.405Z,534.00
2023-03-05T11:55:40.458Z,576.00
2023-03-05T11:56:40.545Z,615.00
2023-03-05T11:57:40.609Z,628.00
2023-03-05T11:58:40.697Z,616.00
2023-03-05T11:59:40.789Z,639.00
2023-03-05T12:00:40.836Z,621.00
2023-03-05T12:01:40.926Z,593.00
2023-03-05T12:02:41.017Z,578.00
2023-03-05T12:03:41.108Z,579.00
2023-03-05T12:04:41.128Z,553.00
2023-03-05T12:05:41.206Z,563.00
2023-03-05T12:06:41.291Z,552.00
2023-03-05T12:07:41.383Z,561.00
2023-03-05T12:08:41.433Z,561.00
2023-03-05T12:09:42.237Z,579.00
2023-03-05T12:10:41.936Z,617.00
2023-03-05T12:11:42.216Z,610.00
2023-03-05T12:12:42.085Z,612.00
2023-03-05T12:13:43.171Z,627.00
2023-03-05T12:14:41.901Z,639.00
2023-03-05T12:15:42.118Z,575.00
2023-03-05T12:16:42.560Z,557.00
2023-03-05T12:17:42.265Z,559.00
2023-03-05T12:18:42.778Z,565.00
2023-03-05T12:19:42.759Z,596.00
2023-03-05T12:20:42.401Z,586.00
2023-03-05T12:21:42.417Z,607.00
2023-03-05T12:22:42.519Z,607.00
2023-03-05T12:23:42.590Z,619.00
2023-03-05T12:24:43.105Z,612.00
2023-03-05T12:25:42.879Z,656.00
2023-03-05T12:26:43.025Z,674.00
2023-03-05T12:27:42.878Z,672.00
2023-03-05T12:28:43.030Z,653.00
2023-03-05T12:29:43.046Z,629.00
2023-03-05T12:30:43.570Z,612.00
2023-03-05T12:31:43.189Z,573.00
2023-03-05T12:32:43.335Z,553.00
2023-03-05T12:33:43.334Z,556.00
2023-03-05T12:34:43.413Z,525.00
2023-03-05T12:36:43.741Z,533.00
2023-03-05T12:37:43.950Z,521.00
2023-03-05T12:38:43.731Z,524.00
2023-03-05T12:39:44.012Z,522.00
2023-03-05T12:40:43.896Z,529.00
2023-03-05T12:41:44.401Z,514.00
2023-03-05T12:42:44.030Z,534.00
2023-03-05T12:43:44.183Z,526.00
2023-03-05T12:44:44.223Z,535.00
2023-03-05T12:45:44.272Z,516.00
2023-03-05T12:46:44.398Z,498.00
2023-03-05T12:47:44.455Z,500.00
2023-03-05T12:48:44.588Z,520.00
2023-03-05T12:49:44.596Z,540.00
2023-03-05T12:50:44.658Z,537.00
2023-03-05T12:51:44.746Z,547.00
2023-03-05T12:52:44.831Z,550.00
2023-03-05T12:53:44.876Z,524.00
2023-03-05T12:54:44.953Z,547.00
2023-03-05T12:55:45.060Z,560.00
2023-03-05T12:56:45.096Z,561.00
2023-03-05T12:57:45.219Z,565.00
2023-03-05T12:58:45.304Z,558.00
2023-03-05T12:59:45.365Z,557.00
2023-03-05T13:00:45.471Z,515.00
2023-03-05T13:01:45.523Z,494.00
2023-03-05T13:02:45.592Z,494.00
2023-03-05T13:03:45.688Z,480.00
2023-03-05T13:04:45.737Z,518.00
2023-03-05T13:05:45.836Z,550.00
2023-03-05T13:06:45.894Z,561.00
2023-03-05T13:07:45.992Z,582.00
2023-03-05T13:08:46.060Z,589.00
2023-03-05T13:09:46.105Z,586.00
2023-03-05T13:10:46.209Z,593.00
2023-03-05T13:11:46.321Z,556.00
2023-03-05T13:12:46.405Z,550.00
2023-03-05T13:13:46.472Z,511.00
2023-03-05T13:14:46.587Z,503.00
2023-03-05T13:15:46.650Z,503.00
2023-03-05T13:16:46.821Z,523.00
2023-03-05T13:17:46.813Z,541.00
2023-03-05T13:18:46.940Z,518.00
2023-03-05T13:19:46.970Z,503.00
2023-03-05T13:20:47.075Z,512.00
2023-03-05T13:21:47.189Z,533.00
2023-03-05T13:22:47.251Z,542.00
2023-03-05T13:23:47.371Z,566.00
2023-03-05T13:24:47.424Z,579.00
2023-03-05T13:25:47.535Z,573.00
2023-03-05T13:26:47.606Z,571.00
2023-03-05T13:27:47.704Z,569.00
2023-03-05T13:28:47.769Z,554.00
2023-03-05T13:29:47.831Z,586.00
2023-03-05T13:30:47.928Z,561.00
2023-03-05T13:31:48.073Z,540.00
2023-03-05T13:32:48.087Z,547.00
2023-03-05T13:33:48.164Z,588.00
2023-03-05T13:34:48.303Z,642.00
2023-03-05T13:35:48.426Z,611.00
2023-03-05T13:36:48.431Z,631.00
2023-03-05T13:37:48.504Z,603.00
2023-03-05T13:38:48.605Z,621.00
2023-03-05T13:39:48.665Z,640.00
2023-03-05T13:40:48.770Z,648.00
2023-03-05T13:41:48.815Z,674.00
2023-03-05T13:42:48.938Z,659.00
2023-03-05T13:43:49.014Z,646.00
2023-03-05T13:44:49.072Z,715.00
2023-03-05T13:45:49.249Z,667.00
2023-03-05T13:46:49.210Z,659.00
2023-03-05T13:47:49.314Z,703.00
2023-03-05T13:48:49.422Z,729.00
2023-03-05T13:49:49.478Z,705.00
2023-03-05T13:50:49.549Z,663.00
2023-03-05T13:51:49.637Z,642.00
2023-03-05T13:52:49.727Z,612.00
2023-03-05T13:53:49.801Z,594.00
2023-03-05T13:54:49.908Z,621.00
2023-03-05T13:55:49.996Z,647.00
2023-03-05T14:02:50.552Z,605.00
2023-03-05T14:03:50.639Z,549.00
2023-03-05T14:04:50.839Z,554.00
2023-03-05T14:05:50.830Z,597.00
2023-03-05T14:06:50.924Z,613.00
2023-03-05T14:07:51.015Z,600.00
2023-03-05T14:08:51.118Z,560.00
2023-03-05T14:09:51.176Z,547.00
2023-03-05T14:10:51.276Z,544.00
2023-03-05T14:11:51.377Z,570.00
2023-03-05T14:12:51.437Z,571.00
2023-03-05T14:13:51.498Z,580.00
2023-03-05T14:14:51.564Z,565.00
2023-03-05T14:15:51.676Z,593.00
2023-03-05T14:16:51.820Z,604.00
2023-03-05T14:17:51.811Z,619.00
2023-03-05T14:18:51.950Z,629.00
2023-03-05T14:19:52.014Z,589.00
2023-03-05T14:20:52.108Z,577.00
2023-03-05T14:21:52.136Z,563.00
2023-03-05T14:22:52.233Z,571.00
2023-03-05T14:23:52.287Z,549.00
2023-03-05T14:24:52.398Z,585.00
2023-03-05T14:25:52.470Z,550.00
2023-03-05T14:26:52.554Z,502.00
2023-03-05T14:27:52.622Z,511.00
2023-03-05T14:28:52.731Z,558.00
2023-03-05T14:29:52.774Z,597.00
2023-03-05T14:30:52.920Z,609.00
2023-03-05T14:31:53.006Z,620.00
2023-03-05T14:32:53.054Z,639.00
2023-03-05T14:33:53.092Z,596.00
2023-03-05T14:34:53.145Z,571.00
2023-03-05T14:35:53.300Z,581.00
2023-03-05T14:36:53.300Z,585.00
2023-03-05T14:37:53.399Z,577.00
2023-03-05T14:38:53.427Z,590.00
2023-03-05T14:39:53.511Z,612.00
2023-03-05T14:40:53.558Z,619.00
2023-03-05T14:41:53.619Z,621.00
2023-03-05T14:42:53.677Z,602.00
2023-03-05T14:43:53.738Z,596.00
2023-03-05T14:44:53.826Z,593.00
2023-03-05T14:45:53.988Z,621.00
2023-03-05T14:46:53.974Z,620.00
2023-03-05T14:47:54.026Z,600.00
2023-03-05T14:48:54.112Z,589.00
2023-03-05T14:49:54.145Z,587.00
2023-03-05T14:50:56.341Z,575.00
2023-03-05T14:51:54.343Z,593.00
2023-03-05T14:52:54.433Z,604.00
2023-03-05T14:53:54.505Z,604.00
2023-03-05T14:54:54.585Z,598.00
2023-03-05T14:55:54.656Z,614.00
2023-03-05T14:56:54.720Z,611.00
2023-03-05T14:57:54.764Z,588.00
2023-03-05T14:58:54.839Z,566.00
2023-03-05T14:59:54.895Z,534.00
2023-03-05T15:37:57.365Z,517.00
2023-03-05T15:38:57.453Z,501.00
2023-03-05T15:39:57.474Z,502.00
2023-03-05T15:40:59.330Z,515.00
2023-03-05T15:41:57.557Z,528.00
2023-03-05T15:42:57.573Z,535.00
2023-03-05T15:43:57.700Z,530.00
2023-03-05T15:44:57.687Z,512.00
2023-03-05T15:45:57.784Z,526.00
2023-03-05T15:46:57.761Z,529.00
2023-03-05T15:47:57.810Z,532.00
2023-03-05T15:48:57.810Z,524.00
2023-03-05T15:49:57.837Z,535.00
2023-03-05T15:50:57.902Z,528.00
2023-03-05T15:51:57.925Z,565.00
2023-03-05T15:52:58.079Z,589.00
2023-03-05T15:53:57.984Z,611.00
2023-03-05T15:54:58.052Z,581.00
2023-03-05T15:55:58.044Z,574.00
2023-03-05T15:56:58.138Z,563.00
2023-03-05T15:57:58.158Z,593.00
2023-03-05T15:58:58.226Z,627.00
2023-03-05T15:59:58.285Z,602.00
2023-03-05T16:00:58.253Z,618.00
2023-03-05T16:01:58.338Z,611.00
2023-03-05T16:02:58.523Z,620.00
2023-03-05T16:03:58.356Z,590.00
2023-03-05T16:04:58.415Z,535.00
2023-03-05T16:05:58.455Z,528.00
2023-03-05T16:06:58.469Z,514.00
2023-03-05T16:07:58.521Z,508.00
2023-03-05T16:08:58.578Z,514.00
2023-03-05T16:09:58.608Z,522.00
2023-03-05T16:10:58.639Z,505.00
2023-03-05T16:11:58.698Z,536.00
2023-03-05T16:12:58.751Z,552.00
2023-03-05T16:13:58.750Z,555.00
2023-03-05T19:04:07.890Z,1718.00
2023-03-05T19:05:07.949Z,1693.00
2023-03-05T19:06:08.037Z,1708.00
2023-03-05T21:20:17.934Z,1800.00
2023-03-05T21:21:18.022Z,1823.00
2023-03-05T21:22:18.110Z,1784.00
2023-03-05T21:23:18.220Z,1790.00
2023-03-05T21:24:18.298Z,1764.00
2023-03-05T21:25:18.380Z,1702.00
2023-03-05T21:26:18.550Z,1660.00
2023-03-05T21:27:18.573Z,1694.00
2023-03-05T21:28:18.697Z,1740.00
2023-03-05T21:29:18.756Z,1722.00
2023-03-05T21:30:18.885Z,1719.00
2023-03-05T21:31:18.947Z,1739.00
2023-03-05T21:32:19.078Z,1731.00
2023-03-05T21:33:19.078Z,1761.00
2023-03-05T21:36:19.350Z,1706.00
2023-03-05T21:37:19.439Z,1700.00
2023-03-05T21:38:19.507Z,1754.00
2023-03-05T21:39:19.602Z,1727.00
2023-03-05T21:40:19.673Z,1724.00
2023-03-05T21:41:19.749Z,1712.00
2023-03-05T21:42:19.834Z,1696.00
2023-03-05T23:29:27.942Z,1760.00
2023-03-05T23:30:27.983Z,1770.00
2023-03-05T23:31:28.092Z,1787.00
2023-03-05T23:32:28.235Z,1801.00
2023-03-05T23:33:28.246Z,1806.00
2023-03-05T23:34:28.369Z,1810.00
2023-03-05T23:35:28.447Z,1807.00
2023-03-05T23:36:28.484Z,1800.00
2023-03-05T23:37:28.509Z,1808.00
2023-03-05T23:38:28.611Z,1840.00
2023-03-05T23:39:28.640Z,1857.00
2023-03-05T23:40:28.723Z,1842.00
2023-03-05T23:41:28.768Z,1836.00
2023-03-05T23:42:28.893Z,1827.00
2023-03-05T23:43:28.968Z,1809.00
2023-03-05T23:44:29.060Z,1820.00
2023-03-05T23:45:29.089Z,1805.00
2023-03-05T23:46:29.185Z,1820.00
2023-03-05T23:47:29.258Z,1821.00
2023-03-05T23:48:29.341Z,1806.00
2023-03-05T23:49:29.492Z,1801.00
2023-03-05T23:50:29.464Z,1784.00
2023-03-05T23:51:29.565Z,1772.00
2023-03-05T23:52:29.621Z,1783.00
2023-03-05T23:53:29.737Z,1744.00
2023-03-05T23:54:29.840Z,1783.00
2023-03-05T23:55:29.884Z,1771.00
2023-03-05T23:56:29.949Z,1763.00
2023-03-05T23:57:30.057Z,1741.00
2023-03-05T23:58:30.192Z,1746.00
2023-03-05T23:59:30.255Z,1755.00
